Time;durP1;ratioP1;P1;durP2;ratioP2;P2;SDS_P1;SDS_P2;PMS_P1;PMS_P2;Temp;Humidity;BMP_temperature;BMP_pressure;BME280_temperature;BME280_humidity;BME280_pressure;Samples;Min_cycle;Max_cycle;Signal;HPM_P1;HPM_P2
2022/05/07 00:00:35;;;;;;;25.73;17.98;;;15.60;99.90;;;;;;5033543;28;20025;-76
2022/05/07 00:03:01;;;;;;;21.52;17.00;;;15.60;99.90;;;;;;5033642;28;20021;-76
2022/05/07 00:05:27;;;;;;;26.73;17.60;;;15.60;99.90;;;;;;5033455;28;20088;-76
2022/05/07 00:07:53;;;;;;;21.73;17.65;;;15.60;99.90;;;;;;5033355;28;20040;-76
2022/05/07 00:10:19;;;;;;;24.60;17.60;;;15.60;99.90;;;;;;5033265;28;20021;-76
2022/05/07 00:12:45;;;;;;;26.25;17.40;;;15.60;99.90;;;;;;5033237;28;20079;-75
2022/05/07 00:15:11;;;;;;;22.23;18.20;;;15.50;99.90;;;;;;5033259;28;20368;-75
2022/05/07 00:20:21;;;;;;;22.20;17.85;;;15.50;99.90;;;;;;5033237;28;20530;-75
2022/05/07 00:22:47;;;;;;;24.13;17.65;;;15.50;99.90;;;;;;5033448;28;20022;-76
2022/05/07 00:25:13;;;;;;;24.60;17.33;;;15.60;99.90;;;;;;5033564;28;20025;-76
2022/05/07 00:27:38;;;;;;;21.30;16.08;;;15.60;99.90;;;;;;5032911;28;20072;-76
2022/05/07 00:30:07;;;;;;;18.70;16.05;;;15.50;99.90;;;;;;5033340;28;20028;-76
2022/05/07 00:32:34;;;;;;;21.63;15.38;;;15.50;99.90;;;;;;5033591;28;20036;-77
2022/05/07 00:35:00;;;;;;;21.45;15.35;;;15.50;99.90;;;;;;5034123;28;20030;-76
2022/05/07 00:37:26;;;;;;;25.38;17.10;;;15.50;99.90;;;;;;5037269;28;20021;-76
2022/05/07 00:39:52;;;;;;;23.75;17.27;;;15.50;99.90;;;;;;5036700;28;20029;-75
2022/05/07 00:42:19;;;;;;;26.15;17.30;;;15.50;99.90;;;;;;5036653;28;20021;-76
2022/05/07 00:44:46;;;;;;;26.83;17.17;;;15.50;99.90;;;;;;5036857;28;20029;-75
2022/05/07 00:47:14;;;;;;;24.15;16.80;;;15.50;99.90;;;;;;5036952;28;20021;-76
2022/05/07 00:49:48;;;;;;;24.67;17.60;;;15.50;99.90;;;;;;5036589;28;20021;-76
2022/05/07 00:52:15;;;;;;;23.92;17.63;;;15.50;99.90;;;;;;5036904;28;20032;-76
2022/05/07 00:54:42;;;;;;;23.98;17.70;;;15.40;99.90;;;;;;5036360;28;20468;-75
2022/05/07 00:57:13;;;;;;;21.67;17.35;;;15.50;99.90;;;;;;5036484;28;20468;-76
2022/05/07 00:59:38;;;;;;;24.75;17.20;;;15.40;99.90;;;;;;5036719;28;20530;-75
2022/05/07 01:02:04;;;;;;;23.88;17.23;;;15.50;99.90;;;;;;5036590;28;20057;-75
2022/05/07 01:04:30;;;;;;;21.23;16.95;;;15.50;99.90;;;;;;5036586;28;20040;-76
2022/05/07 01:06:57;;;;;;;34.95;17.77;;;15.40;99.90;;;;;;5036573;28;20036;-76
2022/05/07 01:09:22;;;;;;;25.90;18.45;;;15.40;99.90;;;;;;5036330;28;20021;-75
2022/05/07 01:11:50;;;;;;;25.50;18.08;;;15.40;99.90;;;;;;5036468;28;20028;-76
2022/05/07 01:14:15;;;;;;;24.52;18.08;;;15.40;99.90;;;;;;5036558;28;20025;-76
2022/05/07 01:16:41;;;;;;;23.98;17.42;;;15.40;99.90;;;;;;5036343;28;20056;-75
2022/05/07 01:19:07;;;;;;;23.98;18.27;;;15.40;99.90;;;;;;5036340;28;20022;-76
2022/05/07 01:21:33;;;;;;;25.48;17.48;;;15.40;99.90;;;;;;5036515;28;20022;-75
2022/05/07 01:23:59;;;;;;;23.45;17.98;;;15.40;99.90;;;;;;5036159;28;20138;-76
2022/05/07 01:26:26;;;;;;;23.42;17.55;;;15.40;99.90;;;;;;5036169;28;20060;-75
2022/05/07 01:28:59;;;;;;;23.27;17.08;;;15.40;99.90;;;;;;5036262;28;20021;-76
2022/05/07 01:31:28;;;;;;;22.58;18.58;;;15.40;99.90;;;;;;5035738;28;20384;-76
2022/05/07 01:33:54;;;;;;;31.77;18.50;;;15.40;99.90;;;;;;5036080;28;20026;-75
2022/05/07 01:36:20;;;;;;;22.92;17.65;;;15.40;99.90;;;;;;5035614;28;20026;-76
2022/05/07 01:38:47;;;;;;;27.50;18.02;;;15.40;99.90;;;;;;5036192;28;20026;-76
2022/05/07 01:41:13;;;;;;;24.10;17.08;;;15.40;99.90;;;;;;5035867;28;20046;-76
2022/05/07 01:43:39;;;;;;;23.30;18.05;;;15.40;99.90;;;;;;5035427;28;20026;-77
2022/05/07 01:48:49;;;;;;;29.33;17.92;;;15.50;99.90;;;;;;5035718;28;20148;-75
2022/05/07 01:51:14;;;;;;;24.40;17.52;;;15.40;99.90;;;;;;5035658;28;20049;-75
2022/05/07 01:53:40;;;;;;;27.23;18.02;;;15.40;99.90;;;;;;5035893;28;20020;-76
2022/05/07 01:56:06;;;;;;;22.48;17.38;;;15.40;99.90;;;;;;5035650;28;20061;-75
2022/05/07 01:58:32;;;;;;;21.60;17.15;;;15.40;99.90;;;;;;5035408;28;20028;-75
2022/05/07 02:00:58;;;;;;;25.17;18.42;;;15.40;99.90;;;;;;5035536;28;20021;-75
2022/05/07 02:03:23;;;;;;;23.48;17.77;;;15.40;99.90;;;;;;5035354;28;20372;-75
2022/05/07 02:05:49;;;;;;;21.60;17.58;;;15.40;99.90;;;;;;5035359;28;20017;-75
2022/05/07 02:08:15;;;;;;;25.02;18.63;;;15.40;99.90;;;;;;5035415;28;20028;-75
2022/05/07 02:10:41;;;;;;;22.08;16.95;;;15.40;99.90;;;;;;5035458;28;20025;-75
2022/05/07 02:13:06;;;;;;;23.17;17.75;;;15.50;99.90;;;;;;5035186;28;20028;-75
2022/05/07 02:15:32;;;;;;;22.15;17.75;;;15.50;99.90;;;;;;5035200;28;20030;-75
2022/05/07 02:17:58;;;;;;;23.40;18.38;;;15.50;99.90;;;;;;5035003;28;20025;-75
2022/05/07 02:20:24;;;;;;;25.75;18.67;;;15.50;99.90;;;;;;5033755;28;20017;-75
2022/05/07 02:22:55;;;;;;;23.52;18.13;;;15.50;99.90;;;;;;5035117;28;20471;-74
2022/05/07 02:25:22;;;;;;;24.27;18.00;;;15.50;99.90;;;;;;5035122;28;20025;-75
2022/05/07 02:27:48;;;;;;;26.45;18.40;;;15.40;99.90;;;;;;5035061;28;20146;-75
2022/05/07 02:30:14;;;;;;;25.50;18.23;;;15.40;99.90;;;;;;5034720;28;20096;-75
2022/05/07 02:32:41;;;;;;;23.20;18.40;;;15.40;99.90;;;;;;5034534;28;20106;-75
2022/05/07 02:35:07;;;;;;;28.45;19.23;;;15.40;99.90;;;;;;5034673;28;20029;-75
2022/05/07 02:37:32;;;;;;;21.70;17.52;;;15.40;99.90;;;;;;5034486;28;20025;-75
2022/05/07 02:39:58;;;;;;;25.27;18.67;;;15.40;99.90;;;;;;5034117;28;20502;-75
2022/05/07 02:42:33;;;;;;;25.23;18.35;;;15.40;99.90;;;;;;5034962;28;20033;-75
2022/05/07 02:44:59;;;;;;;25.83;19.30;;;15.40;99.90;;;;;;5034444;28;20433;-75
2022/05/07 02:47:25;;;;;;;24.60;19.15;;;15.40;99.90;;;;;;5034603;28;20118;-75
2022/05/07 02:49:51;;;;;;;26.17;18.58;;;15.30;99.90;;;;;;5034617;28;20100;-75
2022/05/07 02:52:17;;;;;;;24.58;19.48;;;15.40;99.90;;;;;;5034649;28;20464;-75
2022/05/07 02:54:43;;;;;;;24.45;19.23;;;15.40;99.90;;;;;;5034039;28;20021;-75
2022/05/07 02:57:08;;;;;;;24.88;19.08;;;15.30;99.90;;;;;;5033843;28;20075;-75
2022/05/07 02:59:34;;;;;;;27.17;20.20;;;15.30;99.90;;;;;;5034031;28;20026;-75
2022/05/07 03:02:00;;;;;;;26.63;19.95;;;15.30;99.90;;;;;;5034009;28;20477;-75
2022/05/07 03:04:26;;;;;;;25.98;18.98;;;15.30;99.90;;;;;;5034417;28;20033;-76
2022/05/07 03:06:52;;;;;;;25.85;18.80;;;15.20;99.90;;;;;;5034360;28;20124;-75
2022/05/07 03:09:18;;;;;;;35.08;22.38;;;15.20;99.90;;;;;;5034165;28;20033;-76
2022/05/07 03:11:44;;;;;;;27.15;21.25;;;15.30;99.90;;;;;;5034500;28;20025;-75
2022/05/07 03:14:09;;;;;;;26.55;19.27;;;15.30;99.90;;;;;;5034254;28;20017;-75
2022/05/07 03:16:38;;;;;;;24.73;19.48;;;15.20;99.90;;;;;;5034059;28;20075;-75
2022/05/07 03:19:04;;;;;;;29.23;20.60;;;15.20;99.90;;;;;;5034108;28;20104;-75
2022/05/07 03:21:30;;;;;;;22.98;19.67;;;15.20;99.90;;;;;;5034442;28;20096;-74
2022/05/07 03:23:56;;;;;;;29.58;20.05;;;15.20;99.90;;;;;;5033757;28;20096;-75
2022/05/07 03:26:22;;;;;;;25.33;19.73;;;15.20;99.90;;;;;;5034212;28;20084;-75
2022/05/07 03:28:48;;;;;;;30.73;23.63;;;15.10;99.90;;;;;;5033635;28;20030;-75
2022/05/07 03:31:15;;;;;;;33.97;23.65;;;15.10;99.90;;;;;;5033734;28;20059;-75
2022/05/07 03:33:41;;;;;;;32.70;24.27;;;15.10;99.90;;;;;;5034148;28;20018;-75
2022/05/07 03:36:07;;;;;;;31.95;21.67;;;15.10;99.90;;;;;;5033802;28;20075;-75
2022/05/07 03:38:32;;;;;;;28.42;21.20;;;15.10;99.90;;;;;;5033877;28;20364;-75
2022/05/07 03:40:59;;;;;;;30.63;21.48;;;15.10;99.90;;;;;;5033976;28;20376;-75
2022/05/07 03:43:25;;;;;;;26.23;21.48;;;15.10;99.90;;;;;;5033718;28;20017;-74
2022/05/07 03:45:50;;;;;;;31.10;22.00;;;15.20;99.90;;;;;;5033682;28;20026;-75
2022/05/07 03:48:17;;;;;;;29.30;22.83;;;15.20;99.90;;;;;;5033601;28;20368;-74
2022/05/07 03:50:42;;;;;;;31.65;22.95;;;15.20;99.90;;;;;;5033391;28;20057;-74
2022/05/07 03:55:52;;;;;;;30.40;21.83;;;15.20;99.90;;;;;;5033787;28;20033;-74
2022/05/07 03:58:18;;;;;;;31.10;23.30;;;15.20;99.90;;;;;;5033277;28;20022;-75
2022/05/07 04:00:44;;;;;;;32.47;22.48;;;15.20;99.90;;;;;;5033770;28;20029;-74
2022/05/07 04:03:13;;;;;;;34.58;24.30;;;15.20;99.90;;;;;;5033427;28;20104;-75
2022/05/07 04:05:39;;;;;;;41.08;24.63;;;15.20;99.90;;;;;;5033302;28;20032;-74
2022/05/07 04:08:06;;;;;;;35.13;25.33;;;15.30;99.90;;;;;;5033505;28;20079;-75
2022/05/07 04:10:32;;;;;;;36.65;27.67;;;15.20;99.90;;;;;;5036686;28;20068;-75
2022/05/07 04:12:58;;;;;;;40.55;34.30;;;15.30;99.90;;;;;;5037651;28;20033;-75
2022/05/07 04:15:24;;;;;;;41.33;32.22;;;15.30;99.90;;;;;;5037246;28;20028;-75
2022/05/07 04:17:50;;;;;;;34.70;25.95;;;15.30;99.90;;;;;;5037064;28;20483;-75
2022/05/07 04:20:16;;;;;;;33.35;24.38;;;15.30;99.90;;;;;;5037404;28;20029;-75
2022/05/07 04:22:43;;;;;;;31.05;22.42;;;15.30;99.90;;;;;;5037214;28;20025;-75
2022/05/07 04:25:10;;;;;;;31.13;23.02;;;15.30;99.90;;;;;;5037273;28;20049;-75
2022/05/07 04:27:37;;;;;;;40.05;23.95;;;15.30;99.90;;;;;;5037192;28;20090;-75
2022/05/07 04:30:03;;;;;;;30.65;23.25;;;15.30;99.90;;;;;;5037362;28;20017;-75
2022/05/07 04:32:29;;;;;;;36.97;23.70;;;15.40;99.90;;;;;;5036802;28;20039;-75
2022/05/07 04:34:55;;;;;;;36.90;23.65;;;15.40;99.90;;;;;;5036910;28;20128;-75
2022/05/07 04:37:22;;;;;;;35.90;23.83;;;15.40;99.90;;;;;;5036947;28;20017;-75
2022/05/07 04:39:48;;;;;;;33.33;22.77;;;15.40;99.90;;;;;;5036945;28;20084;-74
2022/05/07 04:42:14;;;;;;;39.35;24.33;;;15.40;99.90;;;;;;5036745;28;20470;-74
2022/05/07 04:44:40;;;;;;;35.65;24.80;;;15.50;99.90;;;;;;5036829;28;20021;-74
2022/05/07 04:47:06;;;;;;;37.80;24.38;;;15.50;99.90;;;;;;5036764;28;20368;-74
2022/05/07 04:49:35;;;;;;;34.17;24.23;;;15.50;99.90;;;;;;5036595;28;20345;-74
2022/05/07 04:52:01;;;;;;;32.75;25.55;;;15.50;99.90;;;;;;5036659;28;20048;-74
2022/05/07 04:54:27;;;;;;;34.33;25.52;;;15.60;99.90;;;;;;5036917;28;20437;-74
2022/05/07 04:56:53;;;;;;;35.67;26.40;;;15.60;99.90;;;;;;5036705;28;20026;-74
2022/05/07 04:59:20;;;;;;;37.10;27.00;;;15.60;99.90;;;;;;5036680;28;20021;-74
2022/05/07 05:01:47;;;;;;;36.33;25.85;;;15.60;99.90;;;;;;5037131;28;20083;-74
2022/05/07 05:04:13;;;;;;;44.55;26.15;;;15.70;99.90;;;;;;5036360;28;20017;-74
2022/05/07 05:06:39;;;;;;;41.30;27.20;;;15.60;99.90;;;;;;5036478;28;20033;-74
2022/05/07 05:09:06;;;;;;;41.22;26.05;;;15.70;99.90;;;;;;5036333;28;20022;-75
2022/05/07 05:11:33;;;;;;;39.38;26.55;;;15.70;99.90;;;;;;5036510;28;20075;-74
2022/05/07 05:13:59;;;;;;;37.22;26.15;;;15.70;99.90;;;;;;5036300;28;20056;-75
2022/05/07 05:16:25;;;;;;;35.78;27.02;;;15.70;99.90;;;;;;5036377;28;20063;-75
2022/05/07 05:18:51;;;;;;;39.25;26.30;;;15.80;99.90;;;;;;5036738;28;20076;-74
2022/05/07 05:21:17;;;;;;;39.42;26.17;;;15.80;99.90;;;;;;5035442;28;20025;-74
2022/05/07 05:23:46;;;;;;;37.58;28.55;;;15.80;99.90;;;;;;5036247;28;20346;-74
2022/05/07 05:26:25;;;;;;;37.08;27.70;;;15.90;99.90;;;;;;5035808;28;20457;-74
2022/05/07 05:28:57;;;;;;;38.22;27.67;;;15.90;99.90;;;;;;5035846;28;20022;-75
2022/05/07 05:31:23;;;;;;;35.90;24.45;;;16.00;99.90;;;;;;5035761;28;20108;-75
2022/05/07 05:33:49;;;;;;;36.53;23.33;;;16.00;99.90;;;;;;5035680;28;20069;-74
2022/05/07 05:36:15;;;;;;;28.08;18.95;;;16.10;99.90;;;;;;5034394;28;20026;-74
2022/05/07 05:38:41;;;;;;;30.30;20.90;;;16.10;99.90;;;;;;5035999;28;20022;-74
2022/05/07 05:41:06;;;;;;;30.80;21.48;;;16.20;99.90;;;;;;5035646;28;20480;-75
2022/05/07 05:43:32;;;;;;;31.00;20.60;;;16.20;99.90;;;;;;5035954;28;20044;-75
2022/05/07 05:45:58;;;;;;;29.35;21.42;;;16.30;99.90;;;;;;5035716;28;20025;-75
2022/05/07 05:48:28;;;;;;;30.85;20.98;;;16.40;99.90;;;;;;5035895;28;20049;-75
2022/05/07 05:50:55;;;;;;;21.98;17.60;;;16.40;99.90;;;;;;5035571;28;20495;-75
2022/05/07 05:53:20;;;;;;;27.52;17.92;;;16.40;99.90;;;;;;5035666;28;20025;-74
2022/05/07 05:55:47;;;;;;;25.08;17.38;;;16.50;99.90;;;;;;5035325;28;20032;-73
2022/05/07 05:58:13;;;;;;;26.08;18.67;;;16.50;99.90;;;;;;5035606;28;20040;-73
2022/05/07 06:00:39;;;;;;;25.38;17.92;;;16.50;99.90;;;;;;5034439;28;20468;-73
2022/05/07 06:03:05;;;;;;;23.65;16.55;;;16.60;99.90;;;;;;5035123;28;20022;-74
2022/05/07 06:05:31;;;;;;;23.63;16.23;;;16.60;99.90;;;;;;5035258;28;20104;-73
2022/05/07 06:07:56;;;;;;;19.65;14.43;;;16.60;99.90;;;;;;5035510;28;20352;-73
2022/05/07 06:10:22;;;;;;;20.40;15.55;;;16.60;99.90;;;;;;5035043;28;20407;-73
2022/05/07 06:12:48;;;;;;;18.38;14.57;;;16.60;99.90;;;;;;5033940;28;20053;-73
2022/05/07 06:15:14;;;;;;;23.02;15.93;;;16.70;99.90;;;;;;5034168;28;20504;-74
2022/05/07 06:17:40;;;;;;;18.95;14.52;;;16.80;99.90;;;;;;5034363;28;20119;-73
2022/05/07 06:20:06;;;;;;;16.75;12.63;;;16.90;99.90;;;;;;5035100;28;20026;-73
2022/05/07 06:22:32;;;;;;;17.13;12.02;;;16.90;99.90;;;;;;5035271;28;20024;-73
2022/05/07 06:27:42;;;;;;;18.55;14.02;;;17.00;99.90;;;;;;5034817;28;20368;-72
2022/05/07 06:30:09;;;;;;;17.48;14.23;;;17.00;99.90;;;;;;5034756;28;20388;-73
2022/05/07 06:32:36;;;;;;;20.27;14.32;;;17.00;99.90;;;;;;5033669;28;20096;-73
2022/05/07 06:35:06;;;;;;;20.05;14.07;;;17.10;99.90;;;;;;5035152;28;20028;-73
2022/05/07 06:37:33;;;;;;;18.25;13.95;;;17.10;99.90;;;;;;5034161;28;20364;-73
2022/05/07 06:40:00;;;;;;;26.83;17.05;;;17.10;99.90;;;;;;5034677;28;20363;-73
2022/05/07 06:42:26;;;;;;;26.88;16.25;;;17.20;99.90;;;;;;5034890;28;20013;-73
2022/05/07 06:44:52;;;;;;;24.80;18.40;;;17.20;99.90;;;;;;5034654;28;20079;-73
2022/05/07 06:47:18;;;;;;;23.88;16.85;;;17.20;99.90;;;;;;5034597;28;20060;-73
2022/05/07 06:49:43;;;;;;;25.00;17.65;;;17.30;99.90;;;;;;5034927;28;20026;-73
2022/05/07 06:52:10;;;;;;;20.60;14.57;;;17.40;99.90;;;;;;5034040;28;20413;-73
2022/05/07 06:54:36;;;;;;;24.48;15.68;;;17.30;99.90;;;;;;5034568;28;20028;-72
2022/05/07 06:57:03;;;;;;;23.42;16.30;;;17.30;99.90;;;;;;5034894;28;20350;-72
2022/05/07 06:59:30;;;;;;;23.15;16.80;;;17.40;99.90;;;;;;5034034;28;20026;-73
2022/05/07 07:01:55;;;;;;;22.98;15.77;;;17.50;99.90;;;;;;5034102;28;20431;-73
2022/05/07 07:04:22;;;;;;;22.15;15.80;;;17.60;99.90;;;;;;5034186;28;20018;-73
2022/05/07 07:06:49;;;;;;;24.23;16.70;;;17.60;99.90;;;;;;5034192;28;20099;-73
2022/05/07 07:09:16;;;;;;;20.70;15.40;;;17.80;99.90;;;;;;5033975;28;20026;-73
2022/05/07 07:11:42;;;;;;;21.90;14.38;;;17.80;99.90;;;;;;5034108;28;20032;-73
2022/05/07 07:14:07;;;;;;;19.58;14.77;;;17.90;99.90;;;;;;5033712;28;20033;-72
2022/05/07 07:16:33;;;;;;;20.45;15.20;;;17.90;99.90;;;;;;5034251;28;20030;-73
2022/05/07 07:18:59;;;;;;;23.88;16.35;;;17.90;99.90;;;;;;5034271;28;20111;-73
2022/05/07 07:21:25;;;;;;;24.67;17.23;;;18.00;99.90;;;;;;5034042;28;20025;-73
2022/05/07 07:23:51;;;;;;;25.25;17.77;;;18.00;99.90;;;;;;5034101;28;20108;-73
2022/05/07 07:26:17;;;;;;;22.42;16.95;;;18.00;99.90;;;;;;5033546;28;20423;-73
2022/05/07 07:28:43;;;;;;;26.40;18.67;;;18.00;99.90;;;;;;5033813;28;20025;-73
2022/05/07 07:31:08;;;;;;;29.15;18.73;;;17.90;99.90;;;;;;5033980;28;20021;-72
2022/05/07 07:33:35;;;;;;;26.27;18.77;;;18.00;99.90;;;;;;5033554;28;20021;-72
2022/05/07 07:36:01;;;;;;;25.17;18.75;;;18.00;99.90;;;;;;5033732;28;20022;-72
2022/05/07 07:38:27;;;;;;;27.30;19.38;;;18.00;99.90;;;;;;5033934;28;20027;-73
2022/05/07 07:40:53;;;;;;;29.00;19.48;;;18.00;99.90;;;;;;5033484;28;20461;-72
2022/05/07 07:43:20;;;;;;;29.55;21.48;;;18.00;99.90;;;;;;5033632;28;20057;-72
2022/05/07 07:48:31;;;;;;;28.52;22.33;;;17.90;99.90;;;;;;5033434;28;20091;-71
2022/05/07 07:50:57;;;;;;;29.88;22.15;;;18.00;99.90;;;;;;5033706;28;20475;-72
2022/05/07 07:53:24;;;;;;;28.05;22.00;;;18.00;99.90;;;;;;5033525;28;20021;-72
2022/05/07 07:55:51;;;;;;;28.55;20.92;;;18.00;99.90;;;;;;5033521;28;20029;-72
2022/05/07 07:58:17;;;;;;;27.20;19.38;;;18.10;99.90;;;;;;5033666;28;20025;-71
2022/05/07 08:00:46;;;;;;;24.75;18.75;;;18.10;99.90;;;;;;5033572;28;20018;-71
2022/05/07 08:03:15;;;;;;;22.88;16.35;;;18.20;99.90;;;;;;5033505;28;20021;-72
2022/05/07 08:05:43;;;;;;;24.08;16.75;;;18.30;99.90;;;;;;5033586;28;20026;-71
2022/05/07 08:13:40;;;;;;;23.98;17.45;;;18.50;99.90;;;;;;5038315;28;20031;-72
2022/05/07 08:16:09;;;;;;;23.27;17.77;;;18.60;99.90;;;;;;5042540;28;20013;-73
2022/05/07 08:18:35;;;;;;;22.73;17.70;;;18.70;99.90;;;;;;5043548;28;20017;-72
2022/05/07 08:21:01;;;;;;;24.15;17.67;;;18.80;99.90;;;;;;5042078;28;20044;-73
2022/05/07 08:23:27;;;;;;;30.25;17.90;;;18.90;99.90;;;;;;5042665;28;20028;-73
2022/05/07 08:25:54;;;;;;;22.65;19.17;;;19.00;99.90;;;;;;5042640;28;20021;-73
2022/05/07 08:28:20;;;;;;;23.58;17.38;;;19.10;99.90;;;;;;5048694;28;20561;-72
2022/05/07 08:30:47;;;;;;;21.05;16.63;;;19.30;99.90;;;;;;5053385;28;20078;-73
2022/05/07 08:33:13;;;;;;;22.67;16.52;;;19.50;99.90;;;;;;5053234;28;20021;-72
2022/05/07 08:35:39;;;;;;;21.40;15.48;;;19.40;99.90;;;;;;5053018;28;20028;-73
2022/05/07 08:38:05;;;;;;;20.83;15.57;;;19.50;99.90;;;;;;5053026;28;20021;-73
2022/05/07 08:40:31;;;;;;;22.65;14.88;;;19.50;99.90;;;;;;5053017;28;20122;-73
2022/05/07 08:42:57;;;;;;;18.98;15.05;;;19.60;99.90;;;;;;5053287;28;20032;-73
2022/05/07 08:45:23;;;;;;;20.67;14.45;;;19.60;99.90;;;;;;5053297;28;20039;-72
2022/05/07 08:47:53;;;;;;;24.25;15.50;;;19.80;99.90;;;;;;5053058;28;20028;-71
2022/05/07 08:50:19;;;;;;;30.45;16.92;;;19.80;99.90;;;;;;5052874;28;20029;-72
2022/05/07 08:52:46;;;;;;;22.60;18.15;;;19.90;99.90;;;;;;5053450;28;20025;-73
2022/05/07 08:55:18;;;;;;;24.10;16.73;;;19.90;99.90;;;;;;5053087;28;20075;-74
2022/05/07 08:57:48;;;;;;;20.08;15.35;;;19.90;99.90;;;;;;5056429;28;20021;-72
2022/05/07 09:00:17;;;;;;;19.10;15.35;;;19.90;99.90;;;;;;5056414;28;20025;-73
2022/05/07 09:02:45;;;;;;;27.33;16.40;;;20.00;99.90;;;;;;5056945;28;20521;-73
2022/05/07 09:05:13;;;;;;;20.17;15.07;;;20.20;99.90;;;;;;5056218;28;20444;-74
2022/05/07 09:07:41;;;;;;;18.35;14.45;;;20.50;99.90;;;;;;5056447;28;20538;-73
2022/05/07 09:10:12;;;;;;;22.08;15.23;;;20.70;99.90;;;;;;5056588;28;20029;-74
2022/05/07 09:12:38;;;;;;;17.40;15.15;;;21.00;99.90;;;;;;5056404;28;20032;-73
2022/05/07 09:15:08;;;;;;;17.42;14.38;;;21.20;99.90;;;;;;5056423;28;20029;-73
2022/05/07 09:17:34;;;;;;;20.80;13.55;;;21.50;99.90;;;;;;5056480;28;20372;-73
2022/05/07 09:20:21;;;;;;;15.70;11.50;;;21.60;99.90;;;;;;5056445;28;20025;-73
2022/05/07 09:22:54;;;;;;;14.65;11.60;;;21.50;99.90;;;;;;5056334;28;20017;-74
2022/05/07 09:25:21;;;;;;;13.48;11.73;;;;;;;;;;5056391;28;20448;-73
2022/05/07 09:27:48;;;;;;;15.27;11.32;;;21.70;99.90;;;;;;5056160;28;20033;-73
2022/05/07 09:30:22;;;;;;;19.10;12.10;;;21.70;99.90;;;;;;5056081;28;20061;-74
2022/05/07 09:32:56;;;;;;;15.88;11.57;;;21.70;99.90;;;;;;5055718;28;20029;-81
2022/05/07 09:38:11;;;;;;;14.90;10.88;;;22.00;99.90;;;;;;5055808;28;20116;-74
2022/05/07 09:40:42;;;;;;;13.18;10.43;;;22.10;99.90;;;;;;5055454;28;20074;-72
2022/05/07 09:43:12;;;;;;;13.52;9.77;;;21.90;99.90;;;;;;5055868;28;20017;-73
2022/05/07 09:45:39;;;;;;;21.90;11.00;;;22.00;99.90;;;;;;5055713;28;20013;-71
2022/05/07 09:48:06;;;;;;;14.45;9.43;;;22.00;99.90;;;;;;5055215;28;20036;-74
2022/05/07 09:58:41;;;;;;;20.42;10.48;;;22.00;99.90;;;;;;5055800;28;20059;-73
2022/05/07 10:01:13;;;;;;;16.40;10.70;;;21.80;99.90;;;;;;5055166;28;20029;-74
2022/05/07 10:04:02;;;;;;;13.07;10.57;;;21.80;99.90;;;;;;5055624;28;20056;-73
2022/05/07 10:06:49;;;;;;;13.10;10.13;;;21.90;99.90;;;;;;5052821;28;20475;-74
2022/05/07 10:09:21;;;;;;;18.55;9.52;;;21.80;99.90;;;;;;5054126;28;20021;-73
2022/05/07 10:11:54;;;;;;;22.05;9.35;;;21.80;99.90;;;;;;5055149;28;20024;-76
2022/05/07 10:14:30;;;;;;;18.75;9.98;;;21.80;99.90;;;;;;5054829;28;20371;-73
2022/05/07 10:16:58;;;;;;;10.18;8.18;;;21.90;99.90;;;;;;5054957;28;20446;-72
2022/05/07 10:19:41;;;;;;;12.00;9.02;;;21.80;98.10;;;;;;5054938;28;20468;-73
2022/05/07 10:22:22;;;;;;;9.98;8.90;;;21.80;97.20;;;;;;5055088;28;20451;-73
2022/05/07 10:25:13;;;;;;;15.30;9.18;;;21.80;98.80;;;;;;5055196;28;20025;-73
2022/05/07 10:27:41;;;;;;;15.32;9.00;;;21.70;97.50;;;;;;5051627;28;20037;-74
2022/05/07 10:30:09;;;;;;;12.30;9.50;;;21.70;99.40;;;;;;5054564;28;20043;-74
2022/05/07 10:32:55;;;;;;;9.35;8.18;;;21.70;99.10;;;;;;5054593;28;20025;-73
2022/05/07 10:35:47;;;;;;;11.57;8.65;;;21.60;93.40;;;;;;5054549;28;20017;-74
2022/05/07 10:38:37;;;;;;;13.52;9.13;;;21.50;95.00;;;;;;5055119;28;20032;-74
2022/05/07 10:41:07;;;;;;;19.73;9.10;;;21.50;97.80;;;;;;5054635;28;20470;-73
2022/05/07 10:43:34;;;;;;;16.88;8.32;;;21.40;95.90;;;;;;5054577;28;20074;-74
2022/05/07 10:46:39;;;;;;;12.10;8.20;;;21.40;94.10;;;;;;5054328;28;20364;-74
2022/05/07 10:49:05;;;;;;;19.45;8.50;;;21.30;91.00;;;;;;5032305;28;20041;-73
2022/05/07 10:51:33;;;;;;;13.38;8.02;;;21.20;91.80;;;;;;5032228;28;20147;-74
2022/05/07 10:54:01;;;;;;;12.98;8.80;;;21.20;92.80;;;;;;5032275;28;20484;-72
2022/05/07 10:56:29;;;;;;;14.35;8.43;;;21.20;91.90;;;;;;5032239;28;20448;-73
2022/05/07 10:58:57;;;;;;;12.18;8.25;;;21.20;92.70;;;;;;5031955;28;20034;-73
2022/05/07 11:01:24;;;;;;;17.40;8.63;;;21.20;92.10;;;;;;5032185;28;20104;-74
2022/05/07 11:04:04;;;;;;;24.45;12.57;;;21.30;93.00;;;;;;5032058;28;20025;-73
2022/05/07 11:06:31;;;;;;;21.75;11.40;;;21.40;92.10;;;;;;5032148;28;20624;-72
2022/05/07 11:08:57;;;;;;;15.07;9.13;;;21.40;92.20;;;;;;5032088;28;20025;-74
2022/05/07 11:11:24;;;;;;;14.90;8.63;;;21.40;90.70;;;;;;5031983;28;20373;-74
2022/05/07 11:13:55;;;;;;;19.15;8.93;;;21.40;91.30;;;;;;5031900;28;20388;-72
2022/05/07 11:16:22;;;;;;;19.90;9.40;;;21.50;90.00;;;;;;5032118;28;20026;-73
2022/05/07 11:18:53;;;;;;;14.40;8.95;;;21.50;90.80;;;;;;5031273;28;20120;-73
2022/05/07 11:21:23;;;;;;;17.08;8.82;;;21.50;90.90;;;;;;5032004;28;20460;-73
2022/05/07 11:23:57;;;;;;;17.55;9.13;;;21.50;89.80;;;;;;5036493;28;20033;-74
2022/05/07 11:26:23;;;;;;;14.52;9.05;;;21.50;89.10;;;;;;5053838;28;20017;-73
2022/05/07 11:28:51;;;;;;;14.18;9.18;;;21.50;88.00;;;;;;5053953;28;20025;-74
2022/05/07 11:31:33;;;;;;;22.17;10.35;;;21.60;89.50;;;;;;5053499;28;20044;-73
2022/05/07 11:34:03;;;;;;;11.00;8.38;;;21.60;88.50;;;;;;5053796;28;20053;-75
2022/05/07 11:36:29;;;;;;;22.67;9.30;;;21.60;90.30;;;;;;5053505;28;20028;-73
2022/05/07 11:39:09;;;;;;;17.23;9.02;;;21.70;90.60;;;;;;5053669;28;20024;-74
2022/05/07 11:41:36;;;;;;;17.75;9.50;;;21.70;91.50;;;;;;5053922;28;20041;-73
2022/05/07 11:46:54;;;;;;;21.02;8.57;;;21.80;85.40;;;;;;5053308;28;20064;-73
2022/05/07 11:49:30;;;;;;;16.27;8.65;;;21.80;87.90;;;;;;5052933;28;20468;-74
2022/05/07 11:52:10;;;;;;;16.45;8.40;;;21.80;86.10;;;;;;5046388;28;20013;-73
2022/05/07 11:54:36;;;;;;;11.27;7.53;;;21.90;86.10;;;;;;5053117;28;20411;-74
2022/05/07 11:57:03;;;;;;;19.95;8.13;;;21.90;83.70;;;;;;5047667;28;20090;-74
2022/05/07 11:59:29;;;;;;;14.10;7.22;;;22.00;83.50;;;;;;5044203;28;20023;-72
2022/05/07 12:01:55;;;;;;;12.60;6.43;;;22.10;80.20;;;;;;5042751;28;20025;-73
2022/05/07 12:04:31;;;;;;;9.40;6.10;;;22.30;74.00;;;;;;5042581;28;20017;-74
2022/05/07 12:06:57;;;;;;;10.32;5.75;;;22.50;69.70;;;;;;5040967;28;20029;-72
2022/05/07 12:09:27;;;;;;;12.55;5.10;;;22.50;63.60;;;;;;5041913;28;20020;-74
2022/05/07 12:11:55;;;;;;;10.98;5.78;;;22.70;68.00;;;;;;5040041;28;20021;-72
2022/05/07 12:14:21;;;;;;;8.80;5.05;;;;;;;;;;5038870;28;20143;-73
2022/05/07 12:19:34;;;;;;;7.93;5.10;;;;;;;;;;5033717;28;20071;-74
2022/05/07 12:30:15;;;;;;;13.95;5.97;;;;;;;;;;5033493;28;20079;-73
2022/05/07 12:32:44;;;;;;;11.52;5.43;;;;;;;;;;5037344;28;20017;-73
2022/05/07 12:35:11;;;;;;;11.98;4.72;;;23.40;50.40;;;;;;5037075;28;20009;-74
2022/05/07 12:37:37;;;;;;;7.80;4.60;;;23.30;51.20;;;;;;5035932;28;20025;-74
2022/05/07 12:40:11;;;;;;;12.13;5.50;;;23.20;52.50;;;;;;5037143;28;20027;-74
2022/05/07 12:42:37;;;;;;;9.60;4.53;;;23.20;50.90;;;;;;5037370;28;20156;-74
2022/05/07 12:45:03;;;;;;;10.10;5.30;;;23.10;52.20;;;;;;5036807;28;20049;-74
2022/05/07 12:47:29;;;;;;;7.75;5.03;;;23.10;52.70;;;;;;5036704;28;20490;-75
2022/05/07 12:49:55;;;;;;;11.55;5.10;;;23.10;54.00;;;;;;5043627;28;20115;-74
2022/05/07 12:52:22;;;;;;;13.57;5.47;;;23.10;51.50;;;;;;5046020;28;20040;-74
2022/05/07 12:54:48;;;;;;;12.93;5.15;;;;;;;;;;5041572;28;20375;-73
2022/05/07 12:57:14;;;;;;;7.40;5.13;;;23.50;50.90;;;;;;5045468;28;20028;-73
2022/05/07 12:59:41;;;;;;;6.57;4.90;;;23.60;49.40;;;;;;5046079;28;20033;-74
2022/05/07 13:02:08;;;;;;;13.18;5.47;;;23.60;49.20;;;;;;5043689;28;20517;-74
2022/05/07 13:04:35;;;;;;;12.43;4.97;;;23.50;51.40;;;;;;5045394;28;20535;-74
2022/05/07 13:07:02;;;;;;;19.08;6.35;;;23.40;51.30;;;;;;5043968;28;20036;-75
2022/05/07 13:09:28;;;;;;;11.18;6.32;;;23.50;52.40;;;;;;5045545;28;20049;-75
2022/05/07 13:11:54;;;;;;;15.48;5.97;;;23.50;50.00;;;;;;5045524;28;20053;-74
2022/05/07 13:14:20;;;;;;;20.10;6.28;;;23.40;50.70;;;;;;5043949;28;20115;-74
2022/05/07 13:16:46;;;;;;;12.00;6.28;;;23.40;50.60;;;;;;5045373;28;20407;-75